createdAt,value
2017-07-08T00:01:18.633Z,94.30
2017-07-08T00:03:46.079Z,94.00
2017-07-08T00:06:14.293Z,93.60
2017-07-08T00:08:41.749Z,93.60
2017-07-08T00:11:09.191Z,93.50
2017-07-08T00:13:36.647Z,93.50
2017-07-08T00:16:04.084Z,93.70
2017-07-08T00:18:32.306Z,93.90
2017-07-08T00:20:59.749Z,93.90
2017-07-08T00:23:27.196Z,94.30
2017-07-08T00:25:54.659Z,93.90
2017-07-08T00:28:22.096Z,93.80
2017-07-08T00:30:49.544Z,93.80
2017-07-08T00:33:17.752Z,94.00
2017-07-08T00:35:45.208Z,94.00
2017-07-08T00:38:12.656Z,94.00
2017-07-08T00:40:40.121Z,94.10
2017-07-08T00:43:07.568Z,94.00
2017-07-08T00:45:35.016Z,94.30
2017-07-08T00:48:02.455Z,94.20
2017-07-08T00:50:30.676Z,94.30
2017-07-08T00:52:58.118Z,94.30
2017-07-08T00:55:25.552Z,94.30
2017-07-08T00:57:53.002Z,94.30
2017-07-08T01:00:21.207Z,94.80
2017-07-08T01:02:48.665Z,94.80
2017-07-08T01:05:16.103Z,95.20
2017-07-08T01:07:43.561Z,95.30
2017-07-08T01:10:10.991Z,95.20
2017-07-08T01:12:38.452Z,95.40
2017-07-08T01:15:06.652Z,95.40
2017-07-08T01:17:34.103Z,95.30
2017-07-08T01:20:01.552Z,95.40
2017-07-08T01:22:29.755Z,95.80
2017-07-08T01:24:57.204Z,95.80
2017-07-08T01:27:24.675Z,95.80
2017-07-08T01:29:52.116Z,96.00
2017-07-08T01:32:19.553Z,96.10
2017-07-08T01:34:47.012Z,96.00
2017-07-08T01:37:14.460Z,95.70
2017-07-08T01:39:42.692Z,95.70
2017-07-08T01:42:10.127Z,95.70
2017-07-08T01:44:37.581Z,95.70
2017-07-08T01:47:05.012Z,95.70
2017-07-08T01:49:32.471Z,95.90
2017-07-08T01:52:04.525Z,95.60
2017-07-08T01:54:32.748Z,95.70
2017-07-08T01:57:00.194Z,95.60
2017-07-08T01:59:27.639Z,95.50
2017-07-08T02:01:55.077Z,95.60
2017-07-08T02:04:23.285Z,95.40
2017-07-08T02:06:50.738Z,95.40
2017-07-08T02:09:18.183Z,95.50
2017-07-08T02:11:45.638Z,95.60
2017-07-08T02:14:13.072Z,95.70
2017-07-08T02:16:41.291Z,95.80
2017-07-08T02:19:08.737Z,95.80
2017-07-08T02:21:36.185Z,96.00
2017-07-08T02:24:03.638Z,96.20
2017-07-08T02:26:31.094Z,96.20
2017-07-08T02:28:58.531Z,96.30
2017-07-08T02:31:26.747Z,95.90
2017-07-08T02:33:54.196Z,95.80
2017-07-08T02:36:21.647Z,96.20
2017-07-08T02:38:49.085Z,96.30
2017-07-08T02:41:16.524Z,96.30
2017-07-08T02:43:43.980Z,96.40
2017-07-08T02:46:11.425Z,96.40
2017-07-08T02:48:38.873Z,96.60
2017-07-08T02:51:06.319Z,96.60
2017-07-08T02:53:37.528Z,96.50
2017-07-08T02:56:04.964Z,96.30
2017-07-08T02:58:33.182Z,96.00
2017-07-08T03:01:00.629Z,96.00
2017-07-08T03:03:28.091Z,96.10
2017-07-08T03:05:55.528Z,96.30
2017-07-08T03:08:22.977Z,96.20
2017-07-08T03:10:50.415Z,95.50
2017-07-08T03:13:17.863Z,95.50
2017-07-08T03:15:46.067Z,95.30
2017-07-08T03:18:13.516Z,95.30
2017-07-08T03:20:40.955Z,95.30
2017-07-08T03:23:08.411Z,95.20
2017-07-08T03:25:35.868Z,94.90
2017-07-08T03:28:03.307Z,95.50
2017-07-08T03:30:30.752Z,95.40
2017-07-08T03:32:58.221Z,95.90
2017-07-08T03:35:25.664Z,95.80
2017-07-08T03:37:53.107Z,95.50
2017-07-08T03:40:20.568Z,95.30
2017-07-08T03:42:48.006Z,95.60
2017-07-08T03:45:15.460Z,96.00
2017-07-08T03:47:42.920Z,96.30
2017-07-08T03:50:10.364Z,96.40
2017-07-08T03:52:41.244Z,96.00
2017-07-08T03:55:08.697Z,96.20
2017-07-08T03:57:36.144Z,96.10
2017-07-08T04:00:03.606Z,95.90
2017-07-08T04:02:31.048Z,95.70
2017-07-08T04:04:58.504Z,96.40
2017-07-08T04:07:25.940Z,96.30
2017-07-08T04:09:53.405Z,96.30
2017-07-08T04:12:20.843Z,95.80
2017-07-08T04:14:48.302Z,96.00
2017-07-08T04:17:15.740Z,96.60
2017-07-08T04:19:43.193Z,96.10
2017-07-08T04:22:10.644Z,96.00
2017-07-08T04:24:38.080Z,95.60
2017-07-08T04:27:05.537Z,95.00
2017-07-08T04:29:32.976Z,95.00
2017-07-08T04:32:00.427Z,95.10
2017-07-08T04:34:27.867Z,94.90
2017-07-08T04:36:55.315Z,95.60
2017-07-08T04:39:22.765Z,95.50
2017-07-08T04:41:50.992Z,94.40
2017-07-08T04:44:18.435Z,94.40
2017-07-08T04:46:45.889Z,94.20
2017-07-08T04:49:14.136Z,94.30
2017-07-08T04:51:41.609Z,93.90
2017-07-08T04:54:09.053Z,93.70
2017-07-08T04:56:36.485Z,93.80
2017-07-08T04:59:03.932Z,92.80
2017-07-08T05:01:31.372Z,92.50
2017-07-08T05:03:58.820Z,91.80
2017-07-08T05:06:26.259Z,91.30
2017-07-08T05:08:53.712Z,91.00
2017-07-08T05:11:21.156Z,90.60
2017-07-08T05:13:48.604Z,89.60
2017-07-08T05:16:16.047Z,88.50
2017-07-08T05:18:44.285Z,88.20
2017-07-08T05:21:11.723Z,88.10
2017-07-08T05:23:39.172Z,86.60
2017-07-08T05:26:06.633Z,86.40
2017-07-08T05:28:34.089Z,84.60
2017-07-08T05:31:01.540Z,84.40
2017-07-08T05:33:28.979Z,84.30
2017-07-08T05:35:56.432Z,85.10
2017-07-08T05:38:23.875Z,81.70
2017-07-08T05:40:52.092Z,85.20
2017-07-08T05:43:19.549Z,85.10
2017-07-08T05:45:47.000Z,85.90
2017-07-08T05:48:14.439Z,87.20
2017-07-08T05:50:41.892Z,88.00
2017-07-08T05:53:09.341Z,87.90
2017-07-08T05:55:36.787Z,89.30
2017-07-08T05:58:04.992Z,88.20
2017-07-08T06:00:32.440Z,88.00
2017-07-08T06:02:59.884Z,88.30
2017-07-08T06:05:28.101Z,87.00
2017-07-08T06:07:55.546Z,86.90
2017-07-08T06:10:23.004Z,87.00
2017-07-08T06:12:50.443Z,87.70
2017-07-08T06:15:17.881Z,87.20
2017-07-08T06:17:46.095Z,85.30
2017-07-08T06:20:13.547Z,85.30
2017-07-08T06:22:41.003Z,84.50
2017-07-08T06:25:08.443Z,83.50
2017-07-08T06:27:35.891Z,82.60
2017-07-08T06:30:03.331Z,81.60
2017-07-08T06:32:31.553Z,78.50
2017-07-08T06:34:58.988Z,78.20
2017-07-08T06:37:26.452Z,75.50
2017-07-08T06:39:53.897Z,74.00
2017-07-08T06:42:21.353Z,73.80
2017-07-08T06:44:48.792Z,72.10
2017-07-08T06:47:17.024Z,67.70
2017-07-08T06:49:44.464Z,66.90
2017-07-08T06:52:11.920Z,64.60
2017-07-08T06:54:39.381Z,61.60
2017-07-08T06:57:06.815Z,58.70
2017-07-08T06:59:34.263Z,58.30
2017-07-08T07:02:01.713Z,57.20
2017-07-08T07:04:29.932Z,56.40
2017-07-08T07:06:57.379Z,56.30
2017-07-08T07:09:24.841Z,55.20
2017-07-08T07:11:52.276Z,52.80
2017-07-08T07:14:19.725Z,52.10
2017-07-08T07:16:47.172Z,52.30
2017-07-08T07:19:15.393Z,50.30
2017-07-08T07:21:42.836Z,50.30
2017-07-08T07:24:10.303Z,50.40
2017-07-08T07:26:37.739Z,50.50
2017-07-08T07:29:05.208Z,49.10
2017-07-08T07:31:32.650Z,50.70
2017-07-08T07:34:00.095Z,50.30
2017-07-08T07:36:27.544Z,48.50
2017-07-08T07:38:55.758Z,48.30
2017-07-08T07:41:23.209Z,48.40
2017-07-08T07:43:50.656Z,48.40
2017-07-08T07:46:18.108Z,47.80
2017-07-08T07:48:45.557Z,47.80
2017-07-08T07:51:13.003Z,47.80
2017-07-08T07:53:41.210Z,46.30
2017-07-08T07:56:08.663Z,46.20
2017-07-08T07:58:36.101Z,46.20
2017-07-08T08:01:03.558Z,44.20
2017-07-08T08:03:30.998Z,45.20
2017-07-08T08:05:59.213Z,46.00
2017-07-08T08:08:26.679Z,46.00
2017-07-08T08:10:54.127Z,45.10
2017-07-08T08:13:21.577Z,44.70
2017-07-08T08:15:49.016Z,44.90
2017-07-08T08:18:16.472Z,45.00
2017-07-08T08:20:43.908Z,43.30
2017-07-08T08:23:12.127Z,42.40
2017-07-08T08:25:39.572Z,42.30
2017-07-08T08:28:07.028Z,42.70
2017-07-08T08:30:34.476Z,43.70
2017-07-08T08:33:01.935Z,42.60
2017-07-08T08:35:29.382Z,43.00
2017-07-08T08:37:56.824Z,42.20
2017-07-08T08:40:25.041Z,42.40
2017-07-08T08:42:52.488Z,42.40
2017-07-08T08:45:19.952Z,41.10
2017-07-08T08:47:47.412Z,40.80
2017-07-08T08:50:14.851Z,39.60
2017-07-08T08:52:42.296Z,39.80
2017-07-08T08:55:09.748Z,41.10
2017-07-08T08:57:37.960Z,41.50
2017-07-08T09:00:05.412Z,41.50
2017-07-08T09:02:32.861Z,41.90
2017-07-08T09:05:00.299Z,41.10
2017-07-08T09:07:27.762Z,41.80
2017-07-08T09:09:55.200Z,40.10
2017-07-08T09:12:22.656Z,40.70
2017-07-08T09:14:50.875Z,41.10
2017-07-08T09:17:18.332Z,41.10
2017-07-08T09:19:45.789Z,40.80
2017-07-08T09:22:13.244Z,41.40
2017-07-08T09:24:40.688Z,40.20
2017-07-08T09:27:08.140Z,40.60
2017-07-08T09:29:35.591Z,39.50
2017-07-08T09:32:03.056Z,39.00
2017-07-08T09:34:30.495Z,38.40
2017-07-08T09:36:57.948Z,39.70
2017-07-08T09:39:26.154Z,40.10
2017-07-08T09:41:53.616Z,40.10
2017-07-08T09:44:21.052Z,38.60
2017-07-08T09:46:48.530Z,39.20
2017-07-08T09:49:15.978Z,39.00
2017-07-08T09:51:43.415Z,39.00
2017-07-08T09:54:10.877Z,39.50
2017-07-08T09:56:38.312Z,38.90
2017-07-08T09:59:06.531Z,39.10
2017-07-08T10:01:33.976Z,39.10
2017-07-08T10:04:01.439Z,39.70
2017-07-08T10:06:28.876Z,40.00
2017-07-08T10:08:56.327Z,39.10
2017-07-08T10:11:23.772Z,39.80
2017-07-08T10:13:51.997Z,40.80
2017-07-08T10:16:19.437Z,40.80
2017-07-08T10:18:46.889Z,41.30
2017-07-08T10:21:14.326Z,41.20
2017-07-08T10:23:41.774Z,40.40
2017-07-08T10:26:09.992Z,40.00
2017-07-08T10:28:37.435Z,40.00
2017-07-08T10:31:04.901Z,40.80
2017-07-08T10:33:32.349Z,41.80
2017-07-08T10:35:59.800Z,42.00
2017-07-08T10:38:27.240Z,41.80
2017-07-08T10:40:55.460Z,41.10
2017-07-08T10:43:22.905Z,41.10
2017-07-08T10:45:50.367Z,41.80
2017-07-08T10:48:17.823Z,41.10
2017-07-08T10:50:45.280Z,39.40
2017-07-08T10:53:12.725Z,39.60
2017-07-08T10:55:40.184Z,40.00
2017-07-08T10:58:07.632Z,39.70
2017-07-08T11:00:35.083Z,40.10
2017-07-08T11:03:02.536Z,40.50
2017-07-08T11:05:29.984Z,39.10
2017-07-08T11:07:58.200Z,39.50
2017-07-08T11:10:25.651Z,39.50
2017-07-08T11:12:53.108Z,38.60
2017-07-08T11:15:20.551Z,38.20
2017-07-08T11:17:48.029Z,38.60
2017-07-08T11:20:15.460Z,38.70
2017-07-08T11:22:42.915Z,39.90
2017-07-08T11:25:10.365Z,41.10
2017-07-08T11:27:37.827Z,41.80
2017-07-08T11:30:05.267Z,42.40
2017-07-08T11:32:33.491Z,43.20
2017-07-08T11:35:00.936Z,43.10
2017-07-08T11:37:28.387Z,42.60
2017-07-08T11:39:55.832Z,43.40
2017-07-08T11:42:23.276Z,44.20
2017-07-08T11:44:50.723Z,44.50
2017-07-08T11:47:18.931Z,44.40
2017-07-08T11:49:46.396Z,44.40
2017-07-08T11:52:13.842Z,44.80
2017-07-08T11:54:41.288Z,45.50
2017-07-08T11:57:08.732Z,46.30
2017-07-08T11:59:36.961Z,46.50
2017-07-08T12:02:04.408Z,46.40
2017-07-08T12:04:31.874Z,45.90
2017-07-08T12:06:59.315Z,45.30
2017-07-08T12:09:26.788Z,45.60
2017-07-08T12:11:54.286Z,45.50
2017-07-08T12:14:21.672Z,45.00
2017-07-08T12:16:49.135Z,45.30
2017-07-08T12:19:16.571Z,45.60
2017-07-08T12:21:44.032Z,45.00
2017-07-08T12:24:11.468Z,44.80
2017-07-08T12:26:39.696Z,45.90
2017-07-08T12:29:07.152Z,45.80
2017-07-08T12:31:34.620Z,44.90
2017-07-08T12:34:02.073Z,45.20
2017-07-08T12:36:29.529Z,44.70
2017-07-08T12:38:56.965Z,43.60
2017-07-08T12:41:24.415Z,45.00
2017-07-08T12:43:51.864Z,43.20
2017-07-08T12:46:19.315Z,42.80
2017-07-08T12:48:46.756Z,41.20
2017-07-08T12:51:14.965Z,40.10
2017-07-08T12:53:42.428Z,40.00
2017-07-08T12:56:09.868Z,40.10
2017-07-08T12:58:37.328Z,39.60
2017-07-08T13:01:04.976Z,40.20
2017-07-08T13:03:32.429Z,40.50
2017-07-08T13:05:59.873Z,40.80
2017-07-08T13:08:28.098Z,39.80
2017-07-08T13:10:55.531Z,39.70
2017-07-08T13:13:22.991Z,38.60
2017-07-08T13:15:50.427Z,39.10
2017-07-08T13:18:18.722Z,39.90
2017-07-08T13:20:46.113Z,39.70
2017-07-08T13:23:13.559Z,37.80
2017-07-08T13:25:41.016Z,37.00
2017-07-08T13:28:08.464Z,37.30
2017-07-08T13:30:35.929Z,38.30
2017-07-08T13:33:03.375Z,38.90
2017-07-08T13:35:30.834Z,39.50
2017-07-08T13:37:58.272Z,39.60
2017-07-08T13:40:25.728Z,40.40
2017-07-08T13:42:53.180Z,40.80
2017-07-08T13:45:20.633Z,42.10
2017-07-08T13:47:48.077Z,42.60
2017-07-08T13:50:16.292Z,41.90
2017-07-08T13:52:43.732Z,41.90
2017-07-08T13:55:11.176Z,41.70
2017-07-08T13:57:39.404Z,41.90
2017-07-08T14:00:06.851Z,41.80
2017-07-08T14:02:34.314Z,40.70
2017-07-08T14:05:01.754Z,40.30
2017-07-08T14:07:29.212Z,39.00
2017-07-08T14:09:56.652Z,37.60
2017-07-08T14:12:24.112Z,38.20
2017-07-08T14:14:51.683Z,39.10
2017-07-08T14:17:19.156Z,38.80
2017-07-08T14:19:46.604Z,38.30
2017-07-08T14:22:14.050Z,38.40
2017-07-08T14:24:41.503Z,37.40
2017-07-08T14:27:08.946Z,38.10
2017-07-08T14:29:36.392Z,38.80
2017-07-08T14:32:03.835Z,39.20
2017-07-08T14:34:32.064Z,39.50
2017-07-08T14:36:59.508Z,39.50
2017-07-08T14:39:26.966Z,40.00
2017-07-08T14:41:54.409Z,41.00
2017-07-08T14:44:21.860Z,40.80
2017-07-08T14:46:49.297Z,40.60
2017-07-08T14:49:17.529Z,40.20
2017-07-08T14:51:44.971Z,40.10
2017-07-08T14:54:12.424Z,40.10
2017-07-08T14:56:39.881Z,40.50
2017-07-08T14:59:07.332Z,41.40
2017-07-08T15:01:34.797Z,41.30
2017-07-08T15:04:02.232Z,42.00
2017-07-08T15:06:29.686Z,41.10
2017-07-08T15:08:57.128Z,40.10
2017-07-08T15:11:25.355Z,36.90
2017-07-08T15:13:52.800Z,36.80
2017-07-08T15:16:20.276Z,38.50
2017-07-08T15:18:47.724Z,39.40
2017-07-08T15:21:15.167Z,40.20
2017-07-08T15:23:42.619Z,41.20
2017-07-08T15:26:10.064Z,42.30
2017-07-08T15:28:37.532Z,40.50
2017-07-08T15:31:04.962Z,40.20
2017-07-08T15:33:32.420Z,39.10
2017-07-08T15:36:00.625Z,39.50
2017-07-08T15:38:28.072Z,39.40
2017-07-08T15:40:55.525Z,39.20
2017-07-08T15:43:22.986Z,39.00
2017-07-08T15:45:50.424Z,39.40
2017-07-08T15:48:17.884Z,38.30
2017-07-08T15:50:45.320Z,37.60
2017-07-08T15:53:13.540Z,38.30
2017-07-08T15:55:40.996Z,38.20
2017-07-08T15:58:08.448Z,37.80
2017-07-08T16:00:35.901Z,38.40
2017-07-08T16:03:03.343Z,38.70
2017-07-08T16:05:30.796Z,39.20
2017-07-08T16:07:58.243Z,40.20
2017-07-08T16:10:25.696Z,39.40
2017-07-08T16:12:53.913Z,38.00
2017-07-08T16:15:21.369Z,37.90
2017-07-08T16:17:48.824Z,37.50
2017-07-08T16:20:16.283Z,38.10
2017-07-08T16:22:43.723Z,38.60
2017-07-08T16:25:11.191Z,38.30
2017-07-08T16:27:38.627Z,38.30
2017-07-08T16:30:06.081Z,38.30
2017-07-08T16:32:33.520Z,38.40
2017-07-08T16:35:01.751Z,38.40
2017-07-08T16:37:29.197Z,38.40
2017-07-08T16:39:56.640Z,38.50
2017-07-08T16:42:24.101Z,38.70
2017-07-08T16:44:51.540Z,38.50
2017-07-08T16:47:18.997Z,38.30
2017-07-08T16:49:46.437Z,38.60
2017-07-08T16:52:13.901Z,39.30
2017-07-08T16:54:41.345Z,39.50
2017-07-08T16:57:08.802Z,39.60
2017-07-08T16:59:36.244Z,40.30
2017-07-08T17:02:03.712Z,41.40
2017-07-08T17:04:31.155Z,42.10
2017-07-08T17:06:58.628Z,42.30
2017-07-08T17:09:26.059Z,43.80
2017-07-08T17:11:53.520Z,45.00
2017-07-08T17:14:20.970Z,44.70
2017-07-08T17:16:48.443Z,45.30
2017-07-08T17:19:15.891Z,46.90
2017-07-08T17:21:43.331Z,47.20
2017-07-08T17:24:10.788Z,47.00
2017-07-08T17:26:38.233Z,46.90
2017-07-08T17:29:05.690Z,47.50
2017-07-08T17:31:33.142Z,47.50
2017-07-08T17:34:00.603Z,47.30
2017-07-08T17:36:28.043Z,47.60
2017-07-08T17:38:55.492Z,48.00
2017-07-08T17:41:22.935Z,47.80
2017-07-08T17:43:50.409Z,48.20
2017-07-08T17:46:17.843Z,48.40
2017-07-08T17:48:45.285Z,48.30
2017-07-08T17:51:12.740Z,48.70
2017-07-08T17:53:40.180Z,49.20
2017-07-08T17:56:07.636Z,49.50
2017-07-08T17:58:35.072Z,49.60
2017-07-08T18:01:02.528Z,50.00
2017-07-08T18:03:29.968Z,49.60
2017-07-08T18:05:57.420Z,50.00
2017-07-08T18:08:24.864Z,50.60
2017-07-08T18:10:52.312Z,50.60
2017-07-08T18:13:19.753Z,51.50
2017-07-08T18:15:47.204Z,51.70
2017-07-08T18:18:14.645Z,52.20
2017-07-08T18:20:42.092Z,52.40
2017-07-08T18:23:09.557Z,52.40
2017-07-08T18:25:36.996Z,52.80
2017-07-08T18:28:04.452Z,53.20
2017-07-08T18:30:31.900Z,53.40
2017-07-08T18:32:59.348Z,53.50
2017-07-08T18:35:26.792Z,53.00
2017-07-08T18:37:55.016Z,53.30
2017-07-08T18:40:22.453Z,53.30
2017-07-08T18:42:49.912Z,53.30
2017-07-08T18:45:17.348Z,53.50
2017-07-08T18:47:44.824Z,53.40
2017-07-08T18:50:12.261Z,53.50
2017-07-08T18:52:39.696Z,53.80
2017-07-08T18:55:07.913Z,54.40
2017-07-08T18:57:35.352Z,54.40
2017-07-08T19:00:02.808Z,54.60
2017-07-08T19:02:30.248Z,55.00
2017-07-08T19:04:58.472Z,55.50
2017-07-08T19:07:25.911Z,55.40
2017-07-08T19:09:53.369Z,56.00
2017-07-08T19:12:20.807Z,56.10
2017-07-08T19:14:48.268Z,56.50
2017-07-08T19:17:15.708Z,57.00
2017-07-08T19:19:43.156Z,57.40
2017-07-08T19:22:10.595Z,57.90
2017-07-08T19:24:38.065Z,58.60
2017-07-08T19:27:05.514Z,58.40
2017-07-08T19:29:32.987Z,58.50
2017-07-08T19:32:01.197Z,59.20
2017-07-08T19:34:28.645Z,59.10
2017-07-08T19:36:56.100Z,59.50
2017-07-08T19:39:23.536Z,60.50
2017-07-08T19:41:51.756Z,62.10
2017-07-08T19:44:19.204Z,62.10
2017-07-08T19:46:46.667Z,63.60
2017-07-08T19:49:14.122Z,63.70
2017-07-08T19:51:41.571Z,63.70
2017-07-08T19:54:09.012Z,64.10
2017-07-08T19:56:36.465Z,65.20
2017-07-08T19:59:03.915Z,65.80
2017-07-08T20:01:31.363Z,65.70
2017-07-08T20:03:59.583Z,66.40
2017-07-08T20:06:27.016Z,66.40
2017-07-08T20:08:54.459Z,67.50
2017-07-08T20:11:21.907Z,69.30
2017-07-08T20:13:50.128Z,73.20
2017-07-08T20:16:17.573Z,73.00
2017-07-08T20:18:45.029Z,74.80
2017-07-08T20:21:12.469Z,75.20
2017-07-08T20:23:39.918Z,76.50
2017-07-08T20:26:07.364Z,77.80
2017-07-08T20:28:34.812Z,78.70
2017-07-08T20:31:02.258Z,78.90
2017-07-08T20:33:29.707Z,78.90
2017-07-08T20:36:00.580Z,78.90
2017-07-08T20:38:28.033Z,79.20
2017-07-08T20:40:55.482Z,79.00
2017-07-08T20:43:22.925Z,79.60
2017-07-08T20:45:50.367Z,79.90
2017-07-08T20:48:17.837Z,80.10
2017-07-08T20:50:45.268Z,80.40
2017-07-08T20:53:12.716Z,80.90
2017-07-08T20:55:40.168Z,80.60
2017-07-08T20:58:07.632Z,81.20
2017-07-08T21:00:35.079Z,81.30
2017-07-08T21:03:02.516Z,82.10
2017-07-08T21:05:29.971Z,81.50
2017-07-08T21:07:57.415Z,82.00
2017-07-08T21:10:24.868Z,82.10
2017-07-08T21:12:53.091Z,82.70
2017-07-08T21:15:20.559Z,82.60
2017-07-08T21:17:47.993Z,82.20
2017-07-08T21:20:15.461Z,80.70
2017-07-08T21:22:42.903Z,80.70
2017-07-08T21:25:10.380Z,80.30
2017-07-08T21:27:37.824Z,79.50
2017-07-08T21:30:05.273Z,79.00
2017-07-08T21:32:32.712Z,79.20
2017-07-08T21:35:00.164Z,79.40
2017-07-08T21:37:27.605Z,80.30
2017-07-08T21:39:55.825Z,81.60
2017-07-08T21:42:23.279Z,81.40
2017-07-08T21:44:50.711Z,81.60
2017-07-08T21:47:18.171Z,81.50
2017-07-08T21:49:45.612Z,81.80
2017-07-08T21:52:13.828Z,79.90
2017-07-08T21:54:41.276Z,79.70
2017-07-08T21:57:08.734Z,79.60
2017-07-08T21:59:36.168Z,79.20
2017-07-08T22:02:03.623Z,79.70
2017-07-08T22:04:31.060Z,80.50
2017-07-08T22:06:59.267Z,80.90
2017-07-08T22:09:26.737Z,80.70
2017-07-08T22:11:54.187Z,80.70
2017-07-08T22:14:21.625Z,80.90
2017-07-08T22:16:49.076Z,81.30
2017-07-08T22:19:16.521Z,81.90
2017-07-08T22:21:44.749Z,84.40
2017-07-08T22:24:12.193Z,83.70
2017-07-08T22:26:39.649Z,84.30
2017-07-08T22:29:07.095Z,84.50
2017-07-08T22:31:34.544Z,84.80
2017-07-08T22:34:01.980Z,85.60
2017-07-08T22:36:30.194Z,86.90
2017-07-08T22:38:57.656Z,86.80
2017-07-08T22:41:25.096Z,86.80
2017-07-08T22:43:52.549Z,87.40
2017-07-08T22:46:19.992Z,86.90
2017-07-08T22:48:47.457Z,86.70
2017-07-08T22:51:14.897Z,86.70
2017-07-08T22:53:43.116Z,86.20
2017-07-08T22:56:10.556Z,86.10
2017-07-08T22:58:38.012Z,86.30
2017-07-08T23:01:05.455Z,85.50
2017-07-08T23:03:32.912Z,85.20
2017-07-08T23:06:00.351Z,85.60
2017-07-08T23:08:28.580Z,85.20
2017-07-08T23:10:56.024Z,85.10
2017-07-08T23:13:23.462Z,85.60
2017-07-08T23:15:50.916Z,85.50
2017-07-08T23:18:18.364Z,85.10
2017-07-08T23:20:45.818Z,85.10
2017-07-08T23:23:14.027Z,86.70
2017-07-08T23:25:41.484Z,86.70
2017-07-08T23:28:08.923Z,87.60
2017-07-08T23:30:36.376Z,87.60
2017-07-08T23:33:03.820Z,87.60
2017-07-08T23:35:32.040Z,88.90
2017-07-08T23:37:59.476Z,88.10
2017-07-08T23:40:26.928Z,88.60
2017-07-08T23:42:54.368Z,88.60
2017-07-08T23:45:21.823Z,89.00
2017-07-08T23:47:49.263Z,89.50
2017-07-08T23:50:17.488Z,90.70
2017-07-08T23:52:44.928Z,90.70
2017-07-08T23:55:12.371Z,91.10
2017-07-08T23:57:39.829Z,91.40
